createdAt,value
2018-02-14T00:01:39.353Z,97271.97
2018-02-14T00:04:06.875Z,97277.61
2018-02-14T00:06:34.345Z,97277.08
2018-02-14T00:09:01.907Z,97278.00
2018-02-14T00:11:29.405Z,97277.36
2018-02-14T00:13:56.922Z,97275.86
2018-02-14T00:16:24.394Z,97271.55
2018-02-14T00:18:51.908Z,97275.46
2018-02-14T00:21:19.385Z,97271.44
2018-02-14T00:23:46.864Z,97273.80
2018-02-14T00:26:14.367Z,97277.48
2018-02-14T00:28:41.860Z,97271.50
2018-02-14T00:31:09.985Z,97274.03
2018-02-14T00:33:37.598Z,97278.23
2018-02-14T00:36:05.131Z,97273.84
2018-02-14T00:38:33.156Z,97276.78
2018-02-14T00:41:00.643Z,97276.44
2018-02-14T00:43:28.192Z,97279.80
2018-02-14T00:45:55.672Z,97285.27
2018-02-14T00:48:23.189Z,97277.91
2018-02-14T00:50:50.662Z,97284.23
2018-02-14T00:53:18.143Z,97282.33
2018-02-14T00:55:45.712Z,97285.27
2018-02-14T00:58:13.215Z,97288.20
2018-02-14T01:00:40.774Z,97288.42
2018-02-14T01:03:08.320Z,97292.10
2018-02-14T01:05:35.829Z,97292.79
2018-02-14T01:08:03.315Z,97287.39
2018-02-14T01:10:30.831Z,97289.37
2018-02-14T01:12:58.560Z,97273.97
2018-02-14T01:15:26.093Z,97295.84
2018-02-14T01:17:53.622Z,97292.56
2018-02-14T01:20:26.691Z,97292.99
2018-02-14T01:22:54.165Z,97294.08
2018-02-14T01:25:21.650Z,97301.55
2018-02-14T01:27:49.167Z,97302.41
2018-02-14T01:30:16.649Z,97299.53
2018-02-14T01:32:44.159Z,97297.98
2018-02-14T01:35:11.658Z,97303.90
2018-02-14T01:37:39.224Z,97300.11
2018-02-14T01:40:06.816Z,97303.00
2018-02-14T01:42:34.298Z,97300.00
2018-02-14T01:45:01.829Z,97301.88
2018-02-14T01:47:29.860Z,97298.87
2018-02-14T01:49:58.597Z,97300.05
2018-02-14T01:52:26.095Z,97300.33
2018-02-14T01:54:53.603Z,97306.26
2018-02-14T01:57:21.273Z,97305.63
2018-02-14T01:59:48.790Z,97305.34
2018-02-14T02:02:16.287Z,97310.84
2018-02-14T02:04:43.812Z,97308.27
2018-02-14T02:07:11.429Z,97303.67
2018-02-14T02:09:38.978Z,97306.59
2018-02-14T02:12:06.506Z,97307.34
2018-02-14T02:14:34.610Z,97310.20
2018-02-14T02:17:02.125Z,97310.06
2018-02-14T02:19:29.654Z,97309.66
2018-02-14T02:21:57.139Z,97312.85
2018-02-14T02:24:24.652Z,97315.27
2018-02-14T02:26:52.135Z,97313.02
2018-02-14T02:29:19.654Z,97313.82
2018-02-14T02:31:47.145Z,97319.10
2018-02-14T02:34:14.642Z,97323.43
2018-02-14T02:36:42.145Z,97325.93
2018-02-14T02:39:21.539Z,97324.87
2018-02-14T02:41:49.148Z,97316.92
2018-02-14T02:44:16.634Z,97322.72
2018-02-14T02:46:44.132Z,97320.48
2018-02-14T02:49:11.681Z,97322.41
2018-02-14T02:51:39.209Z,97332.16
2018-02-14T02:54:06.685Z,97335.34
2018-02-14T02:56:34.223Z,97331.45
2018-02-14T02:59:01.738Z,97340.94
2018-02-14T03:01:29.253Z,97345.59
2018-02-14T03:03:56.760Z,97350.33
2018-02-14T03:06:24.251Z,97350.47
2018-02-14T03:08:51.749Z,97350.00
2018-02-14T03:11:19.267Z,97355.06
2018-02-14T03:13:47.352Z,97353.67
2018-02-14T03:16:14.849Z,97349.89
2018-02-14T03:18:42.462Z,97352.53
2018-02-14T03:21:10.079Z,97346.55
2018-02-14T03:23:37.606Z,97356.09
2018-02-14T03:26:05.118Z,97358.30
2018-02-14T03:28:32.598Z,97358.12
2018-02-14T03:31:00.104Z,97366.03
2018-02-14T03:33:27.601Z,97365.05
2018-02-14T03:35:55.125Z,97368.13
2018-02-14T03:38:22.607Z,97369.81
2018-02-14T03:40:50.140Z,97368.56
2018-02-14T03:43:17.633Z,97376.89
2018-02-14T03:45:45.110Z,97383.16
2018-02-14T03:48:12.623Z,97386.13
2018-02-14T03:50:40.144Z,97391.55
2018-02-14T03:53:07.838Z,97393.56
2018-02-14T03:55:35.318Z,97392.43
2018-02-14T03:58:02.839Z,97400.79
2018-02-14T04:00:30.319Z,97398.84
2018-02-14T04:02:57.866Z,97404.94
2018-02-14T04:05:25.396Z,97404.09
2018-02-14T04:07:53.519Z,97407.23
2018-02-14T04:10:21.031Z,97409.52
2018-02-14T04:12:48.523Z,97413.77
2018-02-14T04:15:16.151Z,97417.17
2018-02-14T04:17:43.696Z,97421.20
2018-02-14T04:20:11.242Z,97425.75
2018-02-14T04:22:38.813Z,97431.95
2018-02-14T04:25:06.381Z,97431.09
2018-02-14T04:27:33.889Z,97433.70
2018-02-14T04:30:01.398Z,97438.30
2018-02-14T04:32:28.968Z,97446.97
2018-02-14T04:34:56.450Z,97449.28
2018-02-14T04:37:23.946Z,97454.85
2018-02-14T04:39:51.427Z,97465.08
2018-02-14T04:42:18.937Z,97462.06
2018-02-14T04:44:46.429Z,97472.71
2018-02-14T04:47:13.963Z,97484.66
2018-02-14T04:49:41.448Z,97483.33
2018-02-14T04:52:09.001Z,97491.10
2018-02-14T04:54:36.548Z,97486.32
2018-02-14T04:57:04.067Z,97494.05
2018-02-14T04:59:31.565Z,97488.37
2018-02-14T05:01:59.390Z,97485.89
2018-02-14T05:04:27.051Z,97490.84
2018-02-14T05:06:54.886Z,97483.06
2018-02-14T05:09:22.400Z,97492.81
2018-02-14T05:11:49.894Z,97494.42
2018-02-14T05:14:17.454Z,97495.16
2018-02-14T05:16:44.944Z,97505.52
2018-02-14T05:19:12.428Z,97504.19
2018-02-14T05:21:40.482Z,97501.80
2018-02-14T05:24:07.971Z,97510.73
2018-02-14T05:26:35.478Z,97508.77
2018-02-14T05:29:02.997Z,97508.29
2018-02-14T05:31:30.487Z,97500.86
2018-02-14T05:33:58.080Z,97515.16
2018-02-14T05:36:25.724Z,97511.95
2018-02-14T05:38:53.241Z,97514.16
2018-02-14T05:41:20.734Z,97512.03
2018-02-14T05:43:48.383Z,97518.46
2018-02-14T05:46:15.915Z,97523.69
2018-02-14T05:48:43.510Z,97525.00
2018-02-14T05:51:11.027Z,97533.32
2018-02-14T05:53:38.641Z,97535.17
2018-02-14T05:56:06.246Z,97544.09
2018-02-14T05:58:33.755Z,97548.95
2018-02-14T06:01:01.317Z,97548.58
2018-02-14T06:03:28.814Z,97551.94
2018-02-14T06:05:56.382Z,97554.06
2018-02-14T06:08:23.879Z,97556.48
2018-02-14T06:10:51.397Z,97564.40
2018-02-14T06:13:18.918Z,97574.46
2018-02-14T06:15:46.400Z,97567.25
2018-02-14T06:18:13.960Z,97569.08
2018-02-14T06:20:42.903Z,97582.27
2018-02-14T06:23:10.413Z,97576.09
2018-02-14T06:25:38.038Z,97569.49
2018-02-14T06:28:05.579Z,97585.86
2018-02-14T06:30:33.091Z,97586.05
2018-02-14T06:33:00.747Z,97587.13
2018-02-14T06:35:28.276Z,97592.61
2018-02-14T06:37:55.904Z,97599.39
2018-02-14T06:40:23.422Z,97607.00
2018-02-14T06:42:51.690Z,97612.33
2018-02-14T06:45:19.270Z,97618.88
2018-02-14T06:47:46.777Z,97618.81
2018-02-14T06:50:14.683Z,97626.67
2018-02-14T06:52:42.191Z,97626.08
2018-02-14T06:55:09.665Z,97633.28
2018-02-14T06:57:37.228Z,97634.48
2018-02-14T07:00:04.750Z,97636.47
2018-02-14T07:02:32.280Z,97639.62
2018-02-14T07:04:59.855Z,97639.34
2018-02-14T07:07:27.389Z,97629.61
2018-02-14T07:09:54.941Z,97645.02
2018-02-14T07:12:22.476Z,97645.91
2018-02-14T07:14:50.007Z,97648.14
2018-02-14T07:17:17.611Z,97653.09
2018-02-14T07:19:45.301Z,97650.70
2018-02-14T07:22:12.862Z,97651.14
2018-02-14T07:24:40.456Z,97654.34
2018-02-14T07:27:08.100Z,97657.59
2018-02-14T07:29:35.777Z,97658.33
2018-02-14T07:32:03.278Z,97662.23
2018-02-14T07:34:30.783Z,97664.72
2018-02-14T07:36:58.307Z,97664.85
2018-02-14T07:39:25.841Z,97666.14
2018-02-14T07:41:53.394Z,97669.95
2018-02-14T07:44:20.954Z,97678.72
2018-02-14T07:46:48.544Z,97673.89
2018-02-14T07:49:16.206Z,97678.78
2018-02-14T07:51:43.787Z,97669.89
2018-02-14T07:54:11.280Z,97672.25
2018-02-14T07:56:38.777Z,97674.31
2018-02-14T07:59:06.850Z,97675.44
2018-02-14T08:01:34.410Z,97679.68
2018-02-14T08:04:02.014Z,97683.53
2018-02-14T08:06:29.644Z,97673.84
2018-02-14T08:08:57.246Z,97683.88
2018-02-14T08:11:24.771Z,97689.31
2018-02-14T08:13:52.285Z,97684.56
2018-02-14T08:16:19.810Z,97687.33
2018-02-14T08:18:47.329Z,97690.47
2018-02-14T08:21:14.939Z,97693.52
2018-02-14T08:23:42.475Z,97698.16
2018-02-14T08:26:10.019Z,97690.97
2018-02-14T08:28:37.534Z,97697.61
2018-02-14T08:31:05.016Z,97690.05
2018-02-14T08:33:33.353Z,97691.55
2018-02-14T08:36:00.854Z,97687.16
2018-02-14T08:38:28.368Z,97691.28
2018-02-14T08:40:55.878Z,97693.28
2018-02-14T08:43:23.407Z,97698.20
2018-02-14T08:45:50.998Z,97701.84
2018-02-14T08:48:18.566Z,97706.60
2018-02-14T08:50:46.077Z,97711.75
2018-02-14T08:53:13.620Z,97713.48
2018-02-14T08:55:41.144Z,97717.22
2018-02-14T08:58:08.668Z,97720.02
2018-02-14T09:00:36.210Z,97727.81
2018-02-14T09:03:03.695Z,97737.37
2018-02-14T09:05:31.227Z,97738.80
2018-02-14T09:07:58.707Z,97742.16
2018-02-14T09:10:26.260Z,97742.11
2018-02-14T09:12:53.862Z,97751.69
2018-02-14T09:15:21.367Z,97743.30
2018-02-14T09:17:48.900Z,97745.95
2018-02-14T09:20:16.401Z,97744.31
2018-02-14T09:22:43.915Z,97756.27
2018-02-14T09:25:11.413Z,97753.81
2018-02-14T09:27:39.033Z,97756.83
2018-02-14T09:30:06.561Z,97755.53
2018-02-14T09:32:34.287Z,97760.25
2018-02-14T09:35:01.785Z,97752.50
2018-02-14T09:37:29.289Z,97753.58
2018-02-14T09:39:57.288Z,97750.21
2018-02-14T09:42:24.808Z,97749.92
2018-02-14T09:44:52.321Z,97748.45
2018-02-14T09:47:19.849Z,97757.45
2018-02-14T09:49:47.367Z,97756.61
2018-02-14T09:52:14.842Z,97754.86
2018-02-14T09:54:42.598Z,97754.31
2018-02-14T09:57:10.087Z,97755.32
2018-02-14T09:59:37.631Z,97756.05
2018-02-14T10:02:05.120Z,97757.77
2018-02-14T10:04:32.653Z,97753.34
2018-02-14T10:07:00.183Z,97752.02
2018-02-14T10:09:27.683Z,97764.40
2018-02-14T10:11:55.272Z,97765.84
2018-02-14T10:14:22.747Z,97769.71
2018-02-14T10:16:50.260Z,97768.36
2018-02-14T10:19:17.764Z,97759.63
2018-02-14T10:21:45.285Z,97759.64
2018-02-14T10:24:12.759Z,97770.50
2018-02-14T10:26:40.328Z,97771.91
2018-02-14T10:29:07.866Z,97773.25
2018-02-14T10:31:35.504Z,97778.84
2018-02-14T10:34:03.008Z,97779.00
2018-02-14T10:36:30.735Z,97783.23
2018-02-14T10:38:58.389Z,97782.74
2018-02-14T10:41:25.884Z,97787.67
2018-02-14T10:43:53.396Z,97788.61
2018-02-14T10:46:20.922Z,97792.42
2018-02-14T10:48:48.474Z,97798.06
2018-02-14T10:51:16.028Z,97794.76
2018-02-14T10:53:43.521Z,97789.00
2018-02-14T10:56:11.057Z,97793.59
2018-02-14T10:58:39.187Z,97784.89
2018-02-14T11:01:06.715Z,97789.70
2018-02-14T11:03:39.679Z,97789.73
2018-02-14T11:06:13.089Z,97787.06
2018-02-14T11:08:41.111Z,97791.64
2018-02-14T11:11:08.701Z,97781.23
2018-02-14T11:13:36.337Z,97778.80
2018-02-14T11:16:03.826Z,97778.83
2018-02-14T11:18:31.453Z,97778.63
2018-02-14T11:20:59.013Z,97771.75
2018-02-14T11:23:26.669Z,97761.47
2018-02-14T11:25:54.174Z,97766.75
2018-02-14T11:28:21.711Z,97766.63
2018-02-14T11:30:49.233Z,97766.44
2018-02-14T11:33:16.718Z,97771.08
2018-02-14T11:35:44.283Z,97759.41
2018-02-14T11:38:12.504Z,97765.83
2018-02-14T11:40:40.008Z,97765.63
2018-02-14T11:43:07.544Z,97767.25
2018-02-14T11:45:35.057Z,97764.52
2018-02-14T11:48:02.558Z,97758.39
2018-02-14T11:50:30.095Z,97754.44
2018-02-14T11:52:57.698Z,97745.91
2018-02-14T11:55:25.278Z,97749.23
2018-02-14T11:57:52.977Z,97750.41
2018-02-14T12:00:20.695Z,97747.93
2018-02-14T12:02:48.242Z,97747.59
2018-02-14T12:05:15.787Z,97739.80
2018-02-14T12:07:43.337Z,97739.09
2018-02-14T12:10:10.873Z,97741.34
2018-02-14T12:12:38.379Z,97748.39
2018-02-14T12:15:05.891Z,97751.57
2018-02-14T12:17:33.401Z,97751.34
2018-02-14T12:20:00.950Z,97754.54
2018-02-14T12:22:28.465Z,97752.99
2018-02-14T12:24:56.001Z,97744.25
2018-02-14T12:27:23.544Z,97748.88
2018-02-14T12:29:51.667Z,97744.49
2018-02-14T12:32:19.273Z,97737.06
2018-02-14T12:34:46.793Z,97735.00
2018-02-14T12:37:14.354Z,97724.78
2018-02-14T12:39:41.903Z,97726.00
2018-02-14T12:42:09.480Z,97725.64
2018-02-14T12:44:36.997Z,97728.09
2018-02-14T12:47:04.556Z,97730.67
2018-02-14T12:49:32.048Z,97724.39
2018-02-14T12:51:59.559Z,97734.85
2018-02-14T12:54:27.075Z,97722.12
2018-02-14T12:56:54.575Z,97726.05
2018-02-14T12:59:22.108Z,97727.16
2018-02-14T13:01:49.589Z,97720.03
2018-02-14T13:04:17.210Z,97718.79
2018-02-14T13:06:44.703Z,97718.77
2018-02-14T13:09:12.282Z,97718.67
2018-02-14T13:11:39.817Z,97720.84
2018-02-14T13:14:07.346Z,97717.56
2018-02-14T13:16:35.648Z,97709.81
2018-02-14T13:19:03.269Z,97713.95
2018-02-14T13:21:30.814Z,97710.87
2018-02-14T13:23:58.362Z,97704.47
2018-02-14T13:26:25.902Z,97707.91
2018-02-14T13:28:53.408Z,97713.39
2018-02-14T13:31:20.953Z,97712.23
2018-02-14T13:33:48.512Z,97716.91
2018-02-14T13:36:16.128Z,97717.95
2018-02-14T13:38:43.639Z,97714.80
2018-02-14T13:41:11.171Z,97722.34
2018-02-14T13:43:38.676Z,97725.47
2018-02-14T13:46:06.167Z,97721.19
2018-02-14T13:48:33.683Z,97717.61
2018-02-14T13:51:01.209Z,97714.92
2018-02-14T13:53:28.773Z,97708.81
2018-02-14T13:55:56.319Z,97707.39
2018-02-14T13:58:25.066Z,97714.60
2018-02-14T14:00:52.562Z,97711.88
2018-02-14T14:03:20.099Z,97710.92
2018-02-14T14:05:47.757Z,97716.05
2018-02-14T14:08:15.285Z,97717.38
2018-02-14T14:10:42.788Z,97718.36
2018-02-14T14:13:10.283Z,97718.98
2018-02-14T14:15:37.809Z,97716.44
2018-02-14T14:18:05.298Z,97721.42
2018-02-14T14:20:32.906Z,97724.44
2018-02-14T14:23:00.454Z,97724.11
2018-02-14T14:25:28.126Z,97726.98
2018-02-14T14:27:55.652Z,97730.05
2018-02-14T14:30:23.268Z,97724.99
2018-02-14T14:32:50.900Z,97726.68
2018-02-14T14:35:18.448Z,97735.38
2018-02-14T14:37:46.057Z,97735.96
2018-02-14T14:40:13.569Z,97739.58
2018-02-14T14:42:41.118Z,97740.30
2018-02-14T14:45:08.637Z,97744.41
2018-02-14T14:47:37.414Z,97746.92
2018-02-14T14:50:04.959Z,97742.08
2018-02-14T14:52:32.584Z,97740.69
2018-02-14T14:55:00.282Z,97735.87
2018-02-14T14:57:27.814Z,97735.14
2018-02-14T14:59:55.339Z,97731.64
2018-02-14T15:02:22.837Z,97737.28
2018-02-14T15:04:50.559Z,97738.20
2018-02-14T15:07:18.139Z,97738.56
2018-02-14T15:09:45.686Z,97736.66
2018-02-14T15:12:13.219Z,97731.66
2018-02-14T15:14:40.769Z,97731.56
2018-02-14T15:17:08.278Z,97734.34
2018-02-14T15:19:35.785Z,97736.59
2018-02-14T15:22:03.428Z,97739.60
2018-02-14T15:24:30.928Z,97735.43
2018-02-14T15:26:58.516Z,97741.66
2018-02-14T15:29:26.036Z,97738.49
2018-02-14T15:31:53.575Z,97742.69
2018-02-14T15:34:21.081Z,97739.05
2018-02-14T15:36:48.555Z,97738.32
2018-02-14T15:39:16.101Z,97738.13
2018-02-14T15:41:43.667Z,97737.86
2018-02-14T15:44:11.199Z,97736.58
2018-02-14T15:46:38.721Z,97737.13
2018-02-14T15:49:06.284Z,97735.93
2018-02-14T15:51:33.786Z,97736.58
2018-02-14T15:54:01.335Z,97745.91
2018-02-14T15:56:28.851Z,97747.80
2018-02-14T15:58:56.414Z,97750.28
2018-02-14T16:01:23.955Z,97746.14
2018-02-14T16:03:51.552Z,97746.04
2018-02-14T16:06:19.083Z,97743.09
2018-02-14T16:08:46.575Z,97740.84
2018-02-14T16:11:14.076Z,97736.58
2018-02-14T16:13:41.593Z,97738.94
2018-02-14T16:16:09.089Z,97744.69
2018-02-14T16:18:36.707Z,97750.42
2018-02-14T16:21:04.220Z,97761.38
2018-02-14T16:23:31.754Z,97755.75
2018-02-14T16:25:59.286Z,97759.38
2018-02-14T16:28:26.908Z,97762.03
2018-02-14T16:30:54.434Z,97761.30
2018-02-14T16:33:21.930Z,97768.12
2018-02-14T16:35:49.529Z,97766.23
2018-02-14T16:38:17.060Z,97770.45
2018-02-14T16:40:44.649Z,97777.09
2018-02-14T16:43:12.250Z,97787.19
2018-02-14T16:45:39.839Z,97788.89
2018-02-14T16:48:07.388Z,97798.08
2018-02-14T16:50:34.883Z,97797.81
2018-02-14T16:53:02.398Z,97792.02
2018-02-14T16:55:29.932Z,97803.97
2018-02-14T16:57:57.507Z,97799.86
2018-02-14T17:00:25.004Z,97802.77
2018-02-14T17:02:52.555Z,97805.87
2018-02-14T17:05:20.084Z,97806.58
2018-02-14T17:07:47.637Z,97805.68
2018-02-14T17:10:15.146Z,97805.17
2018-02-14T17:12:42.666Z,97809.84
2018-02-14T17:15:10.193Z,97814.98
2018-02-14T17:17:37.723Z,97813.40
2018-02-14T17:20:05.269Z,97820.16
2018-02-14T17:22:32.750Z,97823.08
2018-02-14T17:25:00.304Z,97819.03
2018-02-14T17:27:27.828Z,97825.05
2018-02-14T17:29:55.403Z,97823.48
2018-02-14T17:32:23.028Z,97814.98
2018-02-14T17:34:50.602Z,97815.67
2018-02-14T17:37:18.184Z,97817.64
2018-02-14T17:39:45.739Z,97818.48
2018-02-14T17:42:13.392Z,97823.77
2018-02-14T17:44:40.934Z,97823.08
2018-02-14T17:47:09.011Z,97829.08
2018-02-14T17:49:37.167Z,97829.88
2018-02-14T17:52:04.648Z,97832.47
2018-02-14T17:54:33.043Z,97834.81
2018-02-14T17:57:00.540Z,97836.41
2018-02-14T17:59:28.097Z,97837.69
2018-02-14T18:01:55.582Z,97843.73
2018-02-14T18:04:23.128Z,97844.27
2018-02-14T18:06:50.632Z,97845.55
2018-02-14T18:09:18.169Z,97853.69
2018-02-14T18:11:45.667Z,97853.41
2018-02-14T18:14:13.183Z,97856.33
2018-02-14T18:16:40.702Z,97855.92
2018-02-14T18:19:08.217Z,97854.99
2018-02-14T18:21:35.768Z,97859.31
2018-02-14T18:24:03.264Z,97854.42
2018-02-14T18:26:30.809Z,97865.69
2018-02-14T18:28:58.338Z,97866.20
2018-02-14T18:31:25.936Z,97860.77
2018-02-14T18:33:53.472Z,97864.06
2018-02-14T18:36:21.015Z,97862.98
2018-02-14T18:38:48.514Z,97864.90
2018-02-14T18:41:16.617Z,97868.42
2018-02-14T18:43:44.197Z,97872.80
2018-02-14T18:46:14.218Z,97872.75
2018-02-14T18:48:43.451Z,97872.30
2018-02-14T18:51:11.321Z,97878.41
2018-02-14T18:53:40.400Z,97881.17
2018-02-14T18:56:09.130Z,97886.62
2018-02-14T18:58:36.807Z,97886.86
2018-02-14T19:01:04.320Z,97886.61
2018-02-14T19:03:31.849Z,97886.27
2018-02-14T19:05:59.370Z,97896.43
2018-02-14T19:08:26.898Z,97884.53
2018-02-14T19:10:54.452Z,97890.88
2018-02-14T19:13:21.973Z,97891.88
2018-02-14T19:15:49.596Z,97900.62
2018-02-14T19:18:17.081Z,97909.63
2018-02-14T19:20:44.578Z,97910.06
2018-02-14T19:23:12.179Z,97904.75
2018-02-14T19:25:39.753Z,97901.49
2018-02-14T19:28:07.281Z,97896.87
2018-02-14T19:30:34.771Z,97897.89
2018-02-14T19:33:02.335Z,97898.30
2018-02-14T19:35:29.908Z,97898.06
2018-02-14T19:37:58.041Z,97899.50
2018-02-14T19:40:26.055Z,97900.14
2018-02-14T19:42:53.584Z,97906.89
2018-02-14T19:45:21.111Z,97903.72
2018-02-14T19:47:48.628Z,97902.02
2018-02-14T19:50:16.170Z,97894.62
2018-02-14T19:52:43.677Z,97899.52
2018-02-14T19:55:11.226Z,97896.13
2018-02-14T19:57:38.737Z,97892.02
2018-02-14T20:00:06.230Z,97896.69
2018-02-14T20:02:33.801Z,97901.38
2018-02-14T20:05:01.367Z,97898.03
2018-02-14T20:07:28.900Z,97905.18
2018-02-14T20:09:57.164Z,97898.25
2018-02-14T20:12:24.705Z,97897.44
2018-02-14T20:14:52.218Z,97894.12
2018-02-14T20:17:19.799Z,97897.17
2018-02-14T20:19:47.305Z,97895.78
2018-02-14T20:22:14.841Z,97895.05
2018-02-14T20:24:42.356Z,97884.69
2018-02-14T20:27:10.661Z,97878.94
2018-02-14T20:29:38.264Z,97881.83
2018-02-14T20:32:05.822Z,97876.58
2018-02-14T20:34:33.374Z,97868.44
2018-02-14T20:37:01.581Z,97867.46
2018-02-14T20:39:29.084Z,97872.42
2018-02-14T20:41:56.599Z,97880.91
2018-02-14T20:44:24.123Z,97885.27
2018-02-14T20:46:51.611Z,97882.63
2018-02-14T20:49:19.134Z,97885.34
2018-02-14T20:51:47.300Z,97883.83
2018-02-14T20:54:14.841Z,97869.30
2018-02-14T20:56:42.324Z,97872.81
2018-02-14T20:59:10.461Z,97876.73
2018-02-14T21:01:37.982Z,97877.25
2018-02-14T21:04:05.525Z,97886.14
2018-02-14T21:06:33.111Z,97885.45
2018-02-14T21:09:00.607Z,97883.20
2018-02-14T21:11:28.168Z,97881.70
2018-02-14T21:13:55.670Z,97882.63
2018-02-14T21:16:23.201Z,97882.16
2018-02-14T21:18:50.780Z,97885.78
2018-02-14T21:21:18.338Z,97889.14
2018-02-14T21:23:45.867Z,97877.73
2018-02-14T21:26:13.387Z,97897.58
2018-02-14T21:28:40.898Z,97891.46
2018-02-14T21:31:08.418Z,97887.77
2018-02-14T21:33:35.927Z,97882.11
2018-02-14T21:36:03.416Z,97877.92
2018-02-14T21:38:30.961Z,97881.44
2018-02-14T21:40:58.578Z,97881.71
2018-02-14T21:43:26.171Z,97881.55
2018-02-14T21:45:54.601Z,97879.97
2018-02-14T21:48:22.121Z,97878.53
2018-02-14T21:50:49.615Z,97877.43
2018-02-14T21:53:17.114Z,97874.50
2018-02-14T21:55:44.625Z,97883.61
2018-02-14T21:58:13.548Z,97879.52
2018-02-14T22:00:41.048Z,97876.96
2018-02-14T22:03:08.536Z,97877.90
2018-02-14T22:05:36.122Z,97863.20
2018-02-14T22:08:03.639Z,97859.74
2018-02-14T22:10:31.167Z,97861.21
2018-02-14T22:12:58.701Z,97858.27
2018-02-14T22:15:26.298Z,97858.50
2018-02-14T22:17:54.443Z,97847.08
2018-02-14T22:20:21.925Z,97843.00
2018-02-14T22:22:49.474Z,97839.39
2018-02-14T22:25:16.961Z,97835.23
2018-02-14T22:27:44.477Z,97839.55
2018-02-14T22:30:11.986Z,97843.59
2018-02-14T22:32:39.615Z,97844.00
2018-02-14T22:35:07.123Z,97846.88
2018-02-14T22:37:34.676Z,97846.50
2018-02-14T22:40:02.173Z,97841.48
2018-02-14T22:42:29.677Z,97844.49
2018-02-14T22:44:57.187Z,97839.30
2018-02-14T22:47:24.720Z,97834.41
2018-02-14T22:49:52.254Z,97836.66
2018-02-14T22:52:19.751Z,97840.56
2018-02-14T22:54:47.292Z,97839.91
2018-02-14T22:57:14.777Z,97838.59
2018-02-14T22:59:42.283Z,97835.02
2018-02-14T23:02:09.772Z,97830.13
2018-02-14T23:04:37.297Z,97830.09
2018-02-14T23:07:04.782Z,97824.72
2018-02-14T23:09:32.307Z,97830.94
2018-02-14T23:11:59.816Z,97828.41
2018-02-14T23:14:27.314Z,97832.09
2018-02-14T23:16:54.855Z,97824.99
2018-02-14T23:19:22.348Z,97826.92
2018-02-14T23:21:49.865Z,97825.45
2018-02-14T23:24:17.347Z,97828.20
2018-02-14T23:26:44.834Z,97835.56
2018-02-14T23:29:12.359Z,97829.57
2018-02-14T23:31:39.841Z,97826.30
2018-02-14T23:34:07.382Z,97816.91
2018-02-14T23:36:34.865Z,97812.23
2018-02-14T23:39:02.512Z,97811.39
2018-02-14T23:41:30.130Z,97808.34
2018-02-14T23:43:57.831Z,97804.52
2018-02-14T23:46:25.359Z,97801.31
2018-02-14T23:48:52.965Z,97799.92
2018-02-14T23:51:20.570Z,97797.79
2018-02-14T23:53:48.080Z,97794.22
2018-02-14T23:56:15.680Z,97800.15
2018-02-14T23:58:43.153Z,97794.73
